TimeEDT,TemperatureF,Dew PointF,Humidity,Sea Level PressureIn,VisibilityMPH,Wind Direction,Wind SpeedMPH,Gust SpeedMPH,PrecipitationIn,Events,Conditions,WindDirDegrees,DateUTC
12:13 AM,32.5,25.0,74,30.11,10.0,North,8.1,19.6,N/A,,Overcast,360,2012-11-03 04:13:00
12:34 AM,32.2,25.3,76,30.12,10.0,North,12.7,18.4,N/A,,Overcast,360,2012-11-03 04:34:00
12:53 AM,32.0,24.6,74,30.12,10.0,North,8.1,16.1,N/A,,Overcast,360,2012-11-03 04:53:00
1:13 AM,32.0,24.6,74,30.12,10.0,North,10.4,17.3,N/A,,Overcast,10,2012-11-03 05:13:00
1:33 AM,31.6,23.9,73,30.14,10.0,North,11.5,16.1,N/A,,Overcast,10,2012-11-03 05:33:00
1:53 AM,31.8,24.3,74,30.14,10.0,North,10.4,-,N/A,,Overcast,350,2012-11-03 05:53:00
2:14 AM,31.5,24.1,74,30.14,10.0,North,11.5,17.3,N/A,,Overcast,10,2012-11-03 06:14:00
2:33 AM,31.5,23.9,74,30.14,10.0,North,10.4,18.4,N/A,,Overcast,360,2012-11-03 06:33:00
2:53 AM,31.5,24.4,75,30.14,10.0,North,11.5,18.4,N/A,,Overcast,360,2012-11-03 06:53:00
3:14 AM,31.6,24.6,75,30.15,10.0,North,9.2,-,N/A,,Overcast,360,2012-11-03 07:14:00
3:33 AM,31.6,24.6,75,30.15,10.0,North,11.5,-,N/A,,Overcast,360,2012-11-03 07:33:00
3:53 AM,31.8,25.3,77,30.15,10.0,North,11.5,-,N/A,,Overcast,10,2012-11-03 07:53:00
4:14 AM,31.5,26.2,81,30.15,10.0,North,6.9,-,N/A,,Overcast,360,2012-11-03 08:14:00
4:33 AM,31.1,26.8,84,30.15,10.0,Calm,Calm,-,N/A,,Overcast,0,2012-11-03 08:33:00
4:53 AM,31.1,26.4,83,30.15,10.0,North,4.6,-,N/A,,Overcast,350,2012-11-03 08:53:00
5:14 AM,30.9,27.1,86,30.16,2.5,North,5.8,-,N/A,Snow,Light Snow,350,2012-11-03 09:14:00
5:33 AM,30.7,26.6,85,30.16,10.0,NNE,8.1,-,N/A,,Overcast,20,2012-11-03 09:33:00
5:53 AM,30.9,25.7,81,30.16,10.0,North,9.2,-,N/A,,Overcast,10,2012-11-03 09:53:00
6:14 AM,30.9,25.5,80,30.17,10.0,North,9.2,-,N/A,,Overcast,10,2012-11-03 10:14:00
6:33 AM,30.7,24.8,79,30.17,10.0,North,8.1,16.1,N/A,,Overcast,10,2012-11-03 10:33:00
6:53 AM,30.7,24.4,77,30.18,10.0,NNW,8.1,-,N/A,,Overcast,340,2012-11-03 10:53:00
7:14 AM,30.7,24.1,76,30.18,10.0,North,5.8,-,N/A,,Overcast,360,2012-11-03 11:14:00
7:33 AM,30.7,24.4,77,30.18,10.0,North,5.8,-,N/A,,Overcast,10,2012-11-03 11:33:00
7:53 AM,30.2,23.9,77,30.19,10.0,North,8.1,-,N/A,,Overcast,360,2012-11-03 11:53:00
8:14 AM,30.2,23.7,77,30.19,10.0,North,8.1,-,N/A,,Overcast,360,2012-11-03 12:14:00
8:33 AM,30.2,23.4,76,30.19,10.0,North,12.7,16.1,N/A,,Overcast,10,2012-11-03 12:33:00
8:54 AM,30.2,23.5,76,30.19,10.0,North,8.1,-,N/A,,Overcast,10,2012-11-03 12:54:00
9:13 AM,30.2,23.9,77,30.19,10.0,NE,9.2,-,N/A,,Overcast,40,2012-11-03 13:13:00
9:33 AM,30.2,23.9,77,30.20,10.0,NNE,11.5,-,N/A,,Overcast,30,2012-11-03 13:33:00
9:53 AM,30.2,23.9,77,30.20,10.0,NNE,11.5,16.1,N/A,,Overcast,20,2012-11-03 13:53:00
10:13 AM,30.2,23.9,77,30.21,10.0,North,6.9,-,N/A,,Overcast,360,2012-11-03 14:13:00
10:33 AM,30.0,23.9,78,30.21,10.0,North,6.9,-,N/A,,Overcast,360,2012-11-03 14:33:00
10:54 AM,30.2,23.7,77,30.21,10.0,North,8.1,-,N/A,,Overcast,350,2012-11-03 14:54:00
11:13 AM,30.7,23.7,75,30.22,10.0,North,6.9,-,N/A,,Overcast,10,2012-11-03 15:13:00
11:33 AM,30.9,23.5,74,30.21,10.0,North,5.8,-,N/A,,Overcast,360,2012-11-03 15:33:00
11:54 AM,31.1,23.0,72,30.21,10.0,North,8.1,-,N/A,,Overcast,360,2012-11-03 15:54:00
12:13 PM,31.6,23.0,70,30.21,10.0,North,6.9,-,N/A,,Overcast,360,2012-11-03 16:13:00
12:33 PM,31.8,23.0,70,30.21,10.0,North,8.1,-,N/A,,Overcast,360,2012-11-03 16:33:00
12:54 PM,32.0,23.5,71,30.21,10.0,North,4.6,-,N/A,,Overcast,350,2012-11-03 16:54:00
1:13 PM,32.0,23.7,71,30.20,10.0,North,5.8,-,N/A,,Overcast,10,2012-11-03 17:13:00
1:33 PM,32.0,23.9,72,30.20,10.0,North,6.9,-,N/A,,Overcast,350,2012-11-03 17:33:00
1:53 PM,32.4,24.3,72,30.20,10.0,North,4.6,-,N/A,,Overcast,360,2012-11-03 17:53:00
2:13 PM,32.7,24.4,72,30.20,10.0,North,3.5,-,N/A,,Overcast,350,2012-11-03 18:13:00
2:34 PM,32.9,24.4,71,30.20,10.0,NW,6.9,-,N/A,,Overcast,320,2012-11-03 18:34:00
2:53 PM,33.6,25.2,71,30.19,10.0,NNW,5.8,-,N/A,,Overcast,330,2012-11-03 18:53:00
3:13 PM,33.8,25.3,71,30.19,10.0,North,6.9,-,N/A,,Overcast,360,2012-11-03 19:13:00
3:34 PM,34.5,25.2,69,30.18,10.0,NW,5.8,-,N/A,,Overcast,320,2012-11-03 19:34:00
3:53 PM,33.4,24.6,70,30.20,10.0,NNW,4.6,-,N/A,,Overcast,330,2012-11-03 19:53:00
4:13 PM,33.4,24.6,70,30.20,10.0,NW,4.6,-,N/A,,Overcast,320,2012-11-03 20:13:00
4:34 PM,33.4,25.0,71,30.20,10.0,WNW,4.6,-,N/A,,Overcast,300,2012-11-03 20:34:00
4:53 PM,33.6,24.8,70,30.20,10.0,NW,6.9,-,N/A,,Overcast,320,2012-11-03 20:53:00
5:13 PM,33.4,24.6,70,30.20,10.0,WNW,5.8,-,N/A,,Overcast,300,2012-11-03 21:13:00
5:34 PM,33.3,25.5,73,30.20,10.0,NW,8.1,-,N/A,,Overcast,310,2012-11-03 21:34:00
5:53 PM,32.7,25.2,74,30.20,10.0,NW,6.9,-,N/A,,Overcast,320,2012-11-03 21:53:00
6:13 PM,32.5,25.3,75,30.20,10.0,NW,8.1,-,N/A,,Overcast,320,2012-11-03 22:13:00
6:34 PM,32.4,25.5,76,30.20,10.0,NNW,8.1,-,N/A,,Overcast,340,2012-11-03 22:34:00
6:53 PM,32.4,25.2,75,30.20,10.0,North,6.9,-,N/A,,Overcast,350,2012-11-03 22:53:00
7:13 PM,32.4,25.2,75,30.20,10.0,NNW,10.4,-,N/A,,Overcast,340,2012-11-03 23:13:00
7:34 PM,32.2,25.2,75,30.20,10.0,NNW,10.4,16.1,N/A,,Overcast,330,2012-11-03 23:34:00
7:53 PM,32.2,25.5,76,30.20,10.0,NNW,10.4,-,N/A,,Overcast,330,2012-11-03 23:53:00
8:13 PM,32.0,25.7,78,30.20,10.0,NNW,8.1,-,N/A,,Mostly Cloudy,340,2012-11-04 00:13:00
8:34 PM,32.0,25.9,78,30.20,10.0,North,8.1,-,N/A,,Mostly Cloudy,350,2012-11-04 00:34:00
8:53 PM,32.0,25.7,78,30.21,10.0,North,6.9,-,N/A,,Mostly Cloudy,350,2012-11-04 00:53:00
9:13 PM,32.0,25.7,78,30.20,10.0,NNW,6.9,-,N/A,,Scattered Clouds,340,2012-11-04 01:13:00
9:34 PM,32.0,25.7,78,30.20,10.0,NNW,5.8,-,N/A,,Scattered Clouds,340,2012-11-04 01:34:00
9:53 PM,31.8,26.1,79,30.20,10.0,NNW,5.8,-,N/A,,Scattered Clouds,340,2012-11-04 01:53:00
10:13 PM,31.8,26.4,80,30.20,10.0,NNW,8.1,-,N/A,,Clear,340,2012-11-04 02:13:00
10:34 PM,32.0,26.2,79,30.20,10.0,NNW,5.8,-,N/A,,Clear,340,2012-11-04 02:34:00
10:53 PM,32.0,26.4,80,30.20,10.0,NNW,6.9,-,N/A,,Clear,330,2012-11-04 02:53:00
11:13 PM,32.0,26.2,79,30.20,10.0,NNW,4.6,-,N/A,,Scattered Clouds,340,2012-11-04 03:13:00
11:34 PM,32.0,26.2,79,30.20,10.0,NNW,4.6,-,N/A,,Scattered Clouds,340,2012-11-04 03:34:00
11:53 PM,31.8,27.0,82,30.20,10.0,NNW,3.5,-,N/A,,Scattered Clouds,340,2012-11-04 03:53:00